Time;durP1;ratioP1;P1;durP2;ratioP2;P2;SDS_P1;SDS_P2;PMS_P1;PMS_P2;Temp;Humidity;BMP_temperature;BMP_pressure;BME280_temperature;BME280_humidity;BME280_pressure;Samples;Min_cycle;Max_cycle;Signal;HPM_P1;HPM_P2
2023/03/01 00:01:29;;;;;;;;;;;;;;;3.92;48.12;103150.88;4988894;28;19917;-74
2023/03/01 00:03:55;;;;;;;;;;;;;;;3.91;47.99;103146.53;4988956;28;20009;-74
2023/03/01 00:06:20;;;;;;;;;;;;;;;3.88;48.06;103148.78;4986714;28;20020;-73
2023/03/01 00:08:46;;;;;;;;;;;;;;;3.86;48.83;103151.19;5008101;28;19920;-73
2023/03/01 00:11:16;;;;;;;;;;;;;;;3.81;48.62;103152.44;4976599;28;19924;-74
2023/03/01 00:13:42;;;;;;;;;;;;;;;3.79;48.72;103151.41;4993741;28;19918;-73
2023/03/01 00:16:10;;;;;;;;;;;;;;;3.76;48.68;103146.94;4986248;28;19918;-73
2023/03/01 00:18:35;;;;;;;;;;;;;;;3.76;48.29;103146.00;4993068;28;19917;-73
2023/03/01 00:21:00;;;;;;;;;;;;;;;3.75;48.77;103142.56;4991228;28;20044;-73
2023/03/01 00:23:26;;;;;;;;;;;;;;;3.80;48.44;103148.09;4988781;28;19980;-74
2023/03/01 00:25:51;;;;;;;;;;;;;;;3.80;48.68;103155.72;4990721;28;20291;-74
2023/03/01 00:28:17;;;;;;;;;;;;;;;3.78;48.61;103149.63;4992820;28;20290;-73
2023/03/01 00:30:42;;;;;;;;;;;;;;;3.75;48.86;103152.75;4992978;28;20393;-73
2023/03/01 00:33:07;;;;;;;;;;;;;;;3.72;48.81;103152.50;4992594;28;19926;-73
2023/03/01 00:35:33;;;;;;;;;;;;;;;3.68;49.07;103155.50;4992320;28;19918;-73
2023/03/01 00:37:58;;;;;;;;;;;;;;;3.63;49.75;103149.06;4990119;28;20004;-73
2023/03/01 00:40:24;;;;;;;;;;;;;;;3.60;49.29;103150.47;4993479;28;19949;-74
2023/03/01 00:42:50;;;;;;;;;;;;;;;3.60;49.34;103150.47;4992260;28;19922;-73
2023/03/01 00:45:15;;;;;;;;;;;;;;;3.58;49.32;103149.41;4993130;28;20422;-73
2023/03/01 00:47:40;;;;;;;;;;;;;;;3.53;49.20;103153.19;4991322;28;19929;-73
2023/03/01 00:50:06;;;;;;;;;;;;;;;3.45;49.46;103143.19;4992489;28;20425;-73
2023/03/01 00:52:31;;;;;;;;;;;;;;;3.44;49.65;103143.03;4992177;28;19925;-74
2023/03/01 00:54:57;;;;;;;;;;;;;;;3.43;49.40;103142.16;4990143;28;19922;-73
2023/03/01 00:57:23;;;;;;;;;;;;;;;3.41;49.72;103140.22;4992082;28;19975;-73
2023/03/01 00:59:48;;;;;;;;;;;;;;;3.39;49.52;103137.53;4992065;28;19925;-73
2023/03/01 01:02:13;;;;;;;;;;;;;;;3.38;49.54;103135.75;4992278;28;19921;-73
2023/03/01 01:04:38;;;;;;;;;;;;;;;3.41;49.69;103130.06;4992311;28;19922;-74
2023/03/01 01:07:05;;;;;;;;;;;;;;;3.43;50.00;103133.63;4992068;28;20309;-73
2023/03/01 01:09:30;;;;;;;;;;;;;;;3.45;49.63;103129.56;4990255;28;19948;-73
2023/03/01 01:11:55;;;;;;;;;;;;;;;3.47;49.98;103123.00;4991968;28;19925;-73
2023/03/01 01:14:21;;;;;;;;;;;;;;;3.47;49.62;103128.97;4991839;28;20032;-73
2023/03/01 01:16:46;;;;;;;;;;;;;;;3.46;49.95;103131.38;4988467;28;19930;-73
2023/03/01 01:19:12;;;;;;;;;;;;;;;3.46;50.00;103121.22;4989470;28;19937;-73
2023/03/01 01:21:37;;;;;;;;;;;;;;;3.46;49.92;103113.59;4992324;28;19987;-74
2023/03/01 01:24:03;;;;;;;;;;;;;;;3.47;49.68;103115.38;4991208;28;19922;-73
2023/03/01 01:26:29;;;;;;;;;;;;;;;3.45;49.86;103105.03;4991139;28;20442;-73
2023/03/01 01:28:55;;;;;;;;;;;;;;;3.45;49.79;103101.59;4988517;28;20376;-73
2023/03/01 01:31:23;;;;;;;;;;;;;;;3.43;49.82;103098.03;4991073;28;20005;-73
2023/03/01 01:33:49;;;;;;;;;;;;;;;3.41;49.89;103094.47;4991273;28;19964;-72
2023/03/01 01:36:14;;;;;;;;;;;;;;;3.40;49.67;103097.75;4991421;28;19957;-72
2023/03/01 01:38:39;;;;;;;;;;;;;;;3.36;49.58;103086.41;4992526;28;19949;-73
2023/03/01 01:41:05;;;;;;;;;;;;;;;3.38;49.80;103096.69;4987250;28;19933;-73
2023/03/01 01:43:33;;;;;;;;;;;;;;;3.37;49.81;103085.63;4991843;28;19918;-73
2023/03/01 01:46:00;;;;;;;;;;;;;;;3.37;49.89;103082.19;4952305;28;19941;-73
2023/03/01 01:48:40;;;;;;;;;;;;;;;3.34;50.09;103087.91;4991635;28;19914;-73
2023/03/01 01:51:06;;;;;;;;;;;;;;;3.34;50.13;103079.38;4990131;28;20679;-73
2023/03/01 01:53:31;;;;;;;;;;;;;;;3.31;50.23;103079.97;4991264;28;20656;-73
2023/03/01 01:56:00;;;;;;;;;;;;;;;3.30;50.07;103078.19;4990557;28;19922;-73
2023/03/01 01:58:28;;;;;;;;;;;;;;;3.29;50.54;103072.97;4988257;28;19925;-73
2023/03/01 02:00:53;;;;;;;;;;;;;;;3.28;50.10;103073.75;4989862;28;19918;-73
2023/03/01 02:03:22;;;;;;;;;;;;;;;3.25;50.36;103071.78;4990419;28;20053;-73
2023/03/01 02:05:48;;;;;;;;;;;;;;;3.20;50.88;103063.72;4990136;28;20023;-74
2023/03/01 02:08:14;;;;;;;;;;;;;;;3.16;50.76;103068.41;4990971;28;20593;-73
2023/03/01 02:10:40;;;;;;;;;;;;;;;3.14;50.69;103064.81;4990338;28;20669;-73
2023/03/01 02:13:06;;;;;;;;;;;;;;;3.16;50.55;103059.13;4991006;28;19924;-73
2023/03/01 02:15:32;;;;;;;;;;;;;;;3.16;50.89;103060.78;4988776;28;19937;-73
2023/03/01 02:17:58;;;;;;;;;;;;;;;3.15;50.75;103059.84;4988646;28;19918;-73
2023/03/01 02:20:30;;;;;;;;;;;;;;;3.12;50.94;103049.41;4972930;28;20257;-74
2023/03/01 02:22:55;;;;;;;;;;;;;;;3.08;50.79;103059.16;4989616;28;19940;-74
2023/03/01 02:25:30;;;;;;;;;;;;;;;3.06;51.03;103053.03;4990218;28;20383;-74
2023/03/01 02:28:18;;;;;;;;;;;;;;;3.02;50.93;103056.03;4990035;28;19927;-73
2023/03/01 02:33:32;;;;;;;;;;;;;;;2.95;51.16;103063.09;4985596;28;19987;-74
2023/03/01 02:35:58;;;;;;;;;;;;;;;2.96;51.24;103051.28;4985932;28;19996;-74
2023/03/01 02:38:26;;;;;;;;;;;;;;;2.96;51.39;103054.72;4988506;28;20206;-73
2023/03/01 02:40:51;;;;;;;;;;;;;;;2.93;51.12;103038.31;4990368;28;19926;-74
2023/03/01 02:43:19;;;;;;;;;;;;;;;2.96;51.31;103053.81;4989270;28;19925;-73
2023/03/01 02:45:48;;;;;;;;;;;;;;;2.95;51.31;103055.47;4990005;28;20412;-73
2023/03/01 02:48:13;;;;;;;;;;;;;;;2.95;51.16;103054.56;4988851;28;19918;-73
2023/03/01 02:50:47;;;;;;;;;;;;;;;2.95;51.31;103059.66;4989992;28;20008;-73
2023/03/01 02:53:22;;;;;;;;;;;;;;;2.91;51.27;103055.97;4987716;28;20009;-73
2023/03/01 02:55:47;;;;;;;;;;;;;;;2.88;51.53;103063.28;4990128;28;19933;-73
2023/03/01 02:58:12;;;;;;;;;;;;;;;2.86;51.57;103059.72;4989675;28;19922;-74
2023/03/01 03:00:43;;;;;;;;;;;;;;;2.83;51.31;103056.84;4989081;28;20299;-74
2023/03/01 03:03:10;;;;;;;;;;;;;;;2.81;51.70;103055.84;4989267;28;19964;-74
2023/03/01 03:05:35;;;;;;;;;;;;;;;2.81;51.77;103052.41;4989622;28;20100;-73
2023/03/01 03:08:02;;;;;;;;;;;;;;;2.82;51.59;103055.06;4985076;28;20017;-74
2023/03/01 03:10:29;;;;;;;;;;;;;;;2.80;51.83;103048.06;4982303;28;19964;-73
2023/03/01 03:12:56;;;;;;;;;;;;;;;2.79;51.36;103052.25;4990373;28;20157;-74
2023/03/01 03:15:21;;;;;;;;;;;;;;;2.75;51.73;103052.72;4987813;28;19917;-74
2023/03/01 03:17:47;;;;;;;;;;;;;;;2.74;51.74;103056.00;4989454;28;19972;-73
2023/03/01 03:20:18;;;;;;;;;;;;;;;2.68;51.80;103048.69;4988705;28;20341;-73
2023/03/01 03:22:44;;;;;;;;;;;;;;;2.71;51.81;103057.34;4990536;28;19972;-73
2023/03/01 03:25:10;;;;;;;;;;;;;;;2.69;51.76;103057.22;4989129;28;20284;-73
2023/03/01 03:27:36;;;;;;;;;;;;;;;2.65;51.89;103045.84;4988385;28;19925;-73
2023/03/01 03:30:01;;;;;;;;;;;;;;;2.62;52.39;103053.19;4989972;28;19922;-72
2023/03/01 03:32:26;;;;;;;;;;;;;;;2.56;52.47;103055.16;4989182;28;19968;-73
2023/03/01 03:34:51;;;;;;;;;;;;;;;2.53;52.42;103043.81;4988359;28;20045;-74
2023/03/01 03:40:01;;;;;;;;;;;;;;;2.50;52.16;103049.50;4989714;28;20391;-73
2023/03/01 03:42:26;;;;;;;;;;;;;;;2.51;51.82;103046.19;4987832;28;19921;-73
2023/03/01 03:44:51;;;;;;;;;;;;;;;2.49;52.30;103046.78;4989295;28;19975;-73
2023/03/01 03:47:16;;;;;;;;;;;;;;;2.46;52.28;103049.94;4988224;28;19922;-73
2023/03/01 03:49:42;;;;;;;;;;;;;;;2.46;52.41;103044.88;4971549;28;20269;-73
2023/03/01 03:52:13;;;;;;;;;;;;;;;2.44;52.46;103043.84;4971728;28;19922;-73
2023/03/01 03:54:39;;;;;;;;;;;;;;;2.44;52.24;103040.41;4973302;28;20448;-73
2023/03/01 03:57:04;;;;;;;;;;;;;;;2.42;52.66;103042.78;4988087;28;20006;-72
2023/03/01 03:59:29;;;;;;;;;;;;;;;2.42;52.52;103045.31;4985367;28;19924;-72
2023/03/01 04:01:55;;;;;;;;;;;;;;;2.40;52.65;103035.00;4971788;28;19931;-72
2023/03/01 04:04:20;;;;;;;;;;;;;;;2.41;52.05;103033.38;4989426;28;19918;-72
2023/03/01 04:06:46;;;;;;;;;;;;;;;2.41;52.56;103028.28;4987683;28;19922;-72
2023/03/01 04:09:11;;;;;;;;;;;;;;;2.40;53.02;103026.50;4989016;28;19922;-72
2023/03/01 04:11:38;;;;;;;;;;;;;;;2.41;52.43;103026.66;4990002;28;19930;-72
2023/03/01 04:14:04;;;;;;;;;;;;;;;2.39;52.62;103018.00;4991208;28;19926;-72
2023/03/01 04:16:29;;;;;;;;;;;;;;;2.34;53.02;103018.31;4988553;28;19924;-71
2023/03/01 04:18:54;;;;;;;;;;;;;;;2.33;53.00;103019.94;4970681;28;19981;-72
2023/03/01 04:21:20;;;;;;;;;;;;;;;2.33;52.79;103026.69;4987859;28;19921;-72
2023/03/01 04:23:45;;;;;;;;;;;;;;;2.28;52.84;103020.25;4989214;28;19918;-71
2023/03/01 04:26:10;;;;;;;;;;;;;;;2.22;52.91;103006.97;4970665;28;20390;-72
2023/03/01 04:28:37;;;;;;;;;;;;;;;2.25;53.01;103014.91;4987078;28;19989;-72
2023/03/01 04:31:12;;;;;;;;;;;;;;;2.24;53.29;103018.16;4988252;28;20012;-72
2023/03/01 04:33:48;;;;;;;;;;;;;;;2.17;53.34;103015.78;4989089;28;19921;-71
2023/03/01 04:36:14;;;;;;;;;;;;;;;2.13;53.28;103010.44;4988455;28;19921;-71
2023/03/01 04:38:40;;;;;;;;;;;;;;;2.15;53.07;103010.56;4986963;28;20281;-71
2023/03/01 04:41:09;;;;;;;;;;;;;;;2.17;53.74;103010.72;4980434;28;19930;-71
2023/03/01 04:43:35;;;;;;;;;;;;;;;2.13;53.33;103007.00;4986033;28;19918;-72
2023/03/01 04:46:05;;;;;;;;;;;;;;;2.10;53.53;103005.06;4989120;28;19929;-71
2023/03/01 04:48:31;;;;;;;;;;;;;;;2.10;53.87;103005.06;4982433;28;19924;-71
2023/03/01 04:50:57;;;;;;;;;;;;;;;2.13;53.69;102999.41;4987253;28;19918;-71
2023/03/01 04:53:23;;;;;;;;;;;;;;;2.14;53.45;102999.53;4990053;28;19921;-71
2023/03/01 04:55:48;;;;;;;;;;;;;;;2.14;53.57;102998.63;4992305;28;19971;-72
2023/03/01 04:58:13;;;;;;;;;;;;;;;2.15;53.88;102993.69;4992872;28;19918;-72
2023/03/01 05:00:38;;;;;;;;;;;;;;;2.15;53.53;102993.69;4991135;28;19921;-71
2023/03/01 05:03:04;;;;;;;;;;;;;;;2.18;53.74;102994.72;4991482;28;19961;-72
2023/03/01 05:05:33;;;;;;;;;;;;;;;2.15;53.73;102992.81;5006155;28;19926;-71
2023/03/01 05:08:00;;;;;;;;;;;;;;;2.13;53.90;102995.22;4993107;28;20391;-71
2023/03/01 05:10:26;;;;;;;;;;;;;;;2.12;53.59;102992.50;4990093;28;19925;-72
2023/03/01 05:12:54;;;;;;;;;;;;;;;2.11;53.98;102988.19;4992773;28;20486;-72
2023/03/01 05:15:21;;;;;;;;;;;;;;;2.11;54.17;102988.19;4991666;28;20277;-71
2023/03/01 05:17:47;;;;;;;;;;;;;;;2.06;53.84;102986.84;4991979;28;20292;-71
2023/03/01 05:20:12;;;;;;;;;;;;;;;2.02;54.20;102989.84;4991213;28;19937;-71
2023/03/01 05:22:38;;;;;;;;;;;;;;;2.01;53.81;102980.47;4987406;28;20284;-71
2023/03/01 05:25:03;;;;;;;;;;;;;;;2.03;54.05;102976.41;4992577;28;19918;-71
2023/03/01 05:27:29;;;;;;;;;;;;;;;2.06;53.84;102971.59;4990454;28;20047;-71
2023/03/01 05:29:54;;;;;;;;;;;;;;;2.05;53.76;102963.09;4992186;28;19917;-71
2023/03/01 05:32:20;;;;;;;;;;;;;;;2.05;53.89;102965.66;4988625;28;19922;-71
2023/03/01 05:34:46;;;;;;;;;;;;;;;2.05;54.08;102968.19;4988111;28;20335;-71
2023/03/01 05:37:11;;;;;;;;;;;;;;;2.04;53.73;102955.34;4989717;28;19917;-71
2023/03/01 05:39:37;;;;;;;;;;;;;;;2.02;53.85;102956.88;4990845;28;19918;-71
2023/03/01 05:42:02;;;;;;;;;;;;;;;2.01;54.18;102955.97;4987808;28;19937;-71
2023/03/01 05:44:28;;;;;;;;;;;;;;;2.01;54.04;102950.91;4988950;28;19925;-71
2023/03/01 05:46:54;;;;;;;;;;;;;;;2.01;53.92;102952.53;4989540;28;19918;-71
2023/03/01 05:49:19;;;;;;;;;;;;;;;1.98;54.15;102944.63;4990958;28;19945;-71
2023/03/01 05:51:48;;;;;;;;;;;;;;;1.97;53.95;102951.34;4987054;28;19972;-71
2023/03/01 05:54:14;;;;;;;;;;;;;;;1.97;54.41;102951.34;4988294;28;19956;-71
2023/03/01 05:56:39;;;;;;;;;;;;;;;1.94;54.40;102951.03;4973309;28;19929;-71
2023/03/01 05:59:05;;;;;;;;;;;;;;;1.95;54.12;102940.16;4986684;28;19965;-71
2023/03/01 06:01:30;;;;;;;;;;;;;;;1.96;54.52;102952.09;4985828;28;19933;-71
2023/03/01 06:03:56;;;;;;;;;;;;;;;1.95;54.75;102950.31;4988242;28;19922;-71
2023/03/01 06:06:21;;;;;;;;;;;;;;;1.93;54.74;102954.31;4985189;28;19922;-70
2023/03/01 06:08:47;;;;;;;;;;;;;;;1.92;54.24;102957.59;4986792;28;20079;-70
2023/03/01 06:11:12;;;;;;;;;;;;;;;1.87;54.46;102959.69;4987048;28;19926;-73
2023/03/01 06:13:37;;;;;;;;;;;;;;;1.86;54.51;102954.47;4982416;28;19929;-73
2023/03/01 06:16:06;;;;;;;;;;;;;;;1.84;54.69;102954.34;4985785;28;19925;-73
2023/03/01 06:18:31;;;;;;;;;;;;;;;1.84;54.41;102954.34;4985001;28;19918;-73
2023/03/01 06:20:57;;;;;;;;;;;;;;;1.82;54.71;102952.38;4986636;28;19930;-73
2023/03/01 06:23:23;;;;;;;;;;;;;;;1.80;54.83;102947.19;4984536;28;20473;-73
2023/03/01 06:25:48;;;;;;;;;;;;;;;1.77;55.47;102946.00;4985604;28;19925;-73
2023/03/01 06:28:14;;;;;;;;;;;;;;;1.76;55.28;102946.72;4984806;28;19918;-73
2023/03/01 06:30:39;;;;;;;;;;;;;;;1.72;55.17;102948.09;4987083;28;20368;-72
2023/03/01 06:33:04;;;;;;;;;;;;;;;1.73;55.17;102954.06;4986512;28;20360;-73
2023/03/01 06:35:30;;;;;;;;;;;;;;;1.73;55.00;102948.97;4985296;28;19922;-73
2023/03/01 06:37:55;;;;;;;;;;;;;;;1.65;55.78;102953.31;4986732;28;20276;-73
2023/03/01 06:40:21;;;;;;;;;;;;;;;1.59;55.92;102952.72;4970512;28;19960;-73
2023/03/01 06:42:48;;;;;;;;;;;;;;;1.55;56.71;102951.50;4986426;28;19941;-73
2023/03/01 06:45:14;;;;;;;;;;;;;;;1.48;56.86;102954.22;4968408;28;19931;-73
2023/03/01 06:47:39;;;;;;;;;;;;;;;1.39;58.04;102950.75;4986244;28;19934;-73
2023/03/01 06:50:05;;;;;;;;;;;;;;;1.37;57.38;102959.84;4986624;28;19929;-73
2023/03/01 06:52:30;;;;;;;;;;;;;;;1.36;57.33;102950.47;4966962;28;20315;-73
2023/03/01 06:54:55;;;;;;;;;;;;;;;1.40;56.91;102957.63;4985881;28;19936;-73
2023/03/01 06:57:21;;;;;;;;;;;;;;;1.45;56.89;102958.06;4984153;28;19930;-73
2023/03/01 06:59:46;;;;;;;;;;;;;;;1.48;56.73;102959.28;4968949;28;20372;-73
2023/03/01 07:02:13;;;;;;;;;;;;;;;1.50;56.90;102955.25;4984911;28;20372;-73
2023/03/01 07:04:38;;;;;;;;;;;;;;;1.55;56.40;102954.06;4985880;28;19918;-73
2023/03/01 07:07:03;;;;;;;;;;;;;;;1.61;56.43;102949.56;4983935;28;19980;-73
2023/03/01 07:09:29;;;;;;;;;;;;;;;1.66;56.62;102952.56;4985912;28;20051;-73
2023/03/01 07:11:54;;;;;;;;;;;;;;;1.68;56.33;102952.72;4988802;28;20417;-74
2023/03/01 07:14:19;;;;;;;;;;;;;;;1.69;56.28;102952.84;4990227;28;19985;-74
2023/03/01 07:16:45;;;;;;;;;;;;;;;1.71;57.32;102945.41;4988447;28;19925;-75
2023/03/01 07:19:10;;;;;;;;;;;;;;;1.72;56.84;102947.19;4972297;28;19925;-74
2023/03/01 07:21:38;;;;;;;;;;;;;;;1.72;56.84;102947.19;4989927;28;19918;-74
2023/03/01 07:24:03;;;;;;;;;;;;;;;1.75;57.11;102952.56;4973067;28;19922;-75
2023/03/01 07:26:29;;;;;;;;;;;;;;;1.78;57.09;102950.31;4972808;28;20876;-75
2023/03/01 07:28:54;;;;;;;;;;;;;;;1.77;57.72;102951.06;4988946;28;19929;-75
2023/03/01 07:31:20;;;;;;;;;;;;;;;1.75;57.05;102957.63;4990272;28;20000;-75
2023/03/01 07:33:45;;;;;;;;;;;;;;;1.72;57.55;102958.22;4990301;28;20304;-75
2023/03/01 07:36:10;;;;;;;;;;;;;;;1.70;58.14;102966.41;4986232;28;20024;-75
2023/03/01 07:38:36;;;;;;;;;;;;;;;1.70;58.03;102963.88;4985311;28;20446;-75
2023/03/01 07:41:02;;;;;;;;;;;;;;;1.69;57.90;102968.06;4985424;28;20049;-76
2023/03/01 07:43:28;;;;;;;;;;;;;;;1.69;57.72;102968.06;4986047;28;19968;-76
2023/03/01 07:45:54;;;;;;;;;;;;;;;1.71;58.33;102968.25;4970851;28;19925;-75
2023/03/01 07:48:19;;;;;;;;;;;;;;;1.68;58.09;102967.94;4985767;28;19918;-75
2023/03/01 07:50:44;;;;;;;;;;;;;;;1.68;58.48;102973.00;4984444;28;20372;-75
2023/03/01 07:53:10;;;;;;;;;;;;;;;1.68;58.67;102967.94;4985653;28;19926;-75
2023/03/01 07:55:35;;;;;;;;;;;;;;;1.67;58.82;102966.13;4985513;28;19926;-75
2023/03/01 07:58:00;;;;;;;;;;;;;;;1.69;58.74;102974.78;4985209;28;20013;-75
2023/03/01 08:00:25;;;;;;;;;;;;;;;1.73;58.26;102964.19;4984320;28;20768;-75
2023/03/01 08:02:51;;;;;;;;;;;;;;;1.78;58.68;102965.53;4985258;28;19933;-75
2023/03/01 08:05:16;;;;;;;;;;;;;;;1.83;58.71;102959.28;4985013;28;19950;-76
2023/03/01 08:07:41;;;;;;;;;;;;;;;1.85;58.93;102956.13;4985723;28;20020;-76
2023/03/01 08:10:07;;;;;;;;;;;;;;;1.91;58.86;102965.97;4982656;28;19922;-75
2023/03/01 08:12:32;;;;;;;;;;;;;;;1.91;58.74;102975.22;4984492;28;19932;-75
2023/03/01 08:14:57;;;;;;;;;;;;;;;1.95;58.63;102977.31;4984956;28;19936;-75
2023/03/01 08:17:23;;;;;;;;;;;;;;;2.03;58.53;102969.69;4984776;28;20368;-75
2023/03/01 08:19:48;;;;;;;;;;;;;;;2.13;58.28;102976.56;4986000;28;19929;-76
2023/03/01 08:22:13;;;;;;;;;;;;;;;2.20;58.34;102973.84;4984182;28;20357;-76
2023/03/01 08:24:38;;;;;;;;;;;;;;;2.29;58.11;102968.72;4984589;28;20017;-75
2023/03/01 08:27:04;;;;;;;;;;;;;;;2.50;58.27;102965.69;4972776;28;19932;-75
2023/03/01 08:29:33;;;;;;;;;;;;;;;2.68;57.61;102963.97;4987402;28;19929;-75
2023/03/01 08:31:58;;;;;;;;;;;;;;;2.87;57.20;102953.88;4987372;28;20432;-75
2023/03/01 08:34:24;;;;;;;;;;;;;;;3.07;56.85;102953.16;4988611;28;19973;-76
2023/03/01 08:36:51;;;;;;;;;;;;;;;3.33;56.25;102952.97;4974860;28;19928;-76
2023/03/01 08:39:18;;;;;;;;;;;;;;;3.61;55.50;102946.19;4993419;28;20012;-77
2023/03/01 08:41:43;;;;;;;;;;;;;;;3.85;55.62;102939.84;4992582;28;19922;-77
2023/03/01 08:44:10;;;;;;;;;;;;;;;4.11;53.29;102940.44;4993092;28;19967;-76
2023/03/01 08:46:37;;;;;;;;;;;;;;;4.37;53.82;102944.34;4993048;28;20362;-75
2023/03/01 08:49:10;;;;;;;;;;;;;;;4.60;53.15;102944.66;4995490;28;19999;-77
2023/03/01 08:51:38;;;;;;;;;;;;;;;4.85;53.14;102927.25;4994754;28;20303;-76
2023/03/01 08:54:04;;;;;;;;;;;;;;;5.11;52.51;102922.69;4993670;28;19930;-76
2023/03/01 08:56:30;;;;;;;;;;;;;;;5.39;50.60;102936.03;4976737;28;19925;-76
2023/03/01 08:58:55;;;;;;;;;;;;;;;5.61;51.88;102925.91;4991459;28;19922;-77
2023/03/01 09:01:20;;;;;;;;;;;;;;;5.85;51.52;102919.34;4991992;28;19926;-76
2023/03/01 09:03:46;;;;;;;;;;;;;;;6.02;48.04;102925.84;4989577;28;19930;-76
2023/03/01 09:06:11;;;;;;;;;;;;;;;6.17;49.21;102915.91;4975215;28;20372;-76
2023/03/01 09:08:38;;;;;;;;;;;;;;;6.39;50.27;102918.50;4990455;28;19933;-76
2023/03/01 09:11:03;;;;;;;;;;;;;;;6.61;48.00;102914.28;4992679;28;19918;-76
2023/03/01 09:13:30;;;;;;;;;;;;;;;6.80;46.64;102921.69;4989888;28;19941;-77
2023/03/01 09:15:56;;;;;;;;;;;;;;;7.01;48.77;102921.50;4992150;28;19922;-77
2023/03/01 09:18:21;;;;;;;;;;;;;;;7.14;48.46;102903.75;4992280;28;19922;-76
2023/03/01 09:20:47;;;;;;;;;;;;;;;7.21;45.43;102904.31;4992847;28;19968;-77
2023/03/01 09:23:12;;;;;;;;;;;;;;;7.15;44.67;102905.50;4992481;28;19934;-77
2023/03/01 09:25:37;;;;;;;;;;;;;;;7.18;46.36;102905.75;4991074;28;19922;-73
2023/03/01 09:28:03;;;;;;;;;;;;;;;7.17;45.13;102899.75;4961408;28;19984;-73
2023/03/01 09:30:29;;;;;;;;;;;;;;;7.24;47.92;102896.88;4991373;28;20000;-73
2023/03/01 09:32:56;;;;;;;;;;;;;;;7.18;45.02;102896.41;4974857;28;19918;-73
2023/03/01 09:35:22;;;;;;;;;;;;;;;7.15;45.33;102885.94;4984492;28;19941;-73
2023/03/01 09:37:49;;;;;;;;;;;;;;;7.16;44.83;102881.69;4991816;28;19921;-73
2023/03/01 09:40:16;;;;;;;;;;;;;;;7.09;44.41;102879.47;4990869;28;19967;-73
2023/03/01 09:42:52;;;;;;;;;;;;;;;7.14;45.77;102886.72;4991847;28;19914;-73
2023/03/01 09:45:26;;;;;;;;;;;;;;;7.21;45.50;102877.81;4986020;28;19980;-74
2023/03/01 09:47:52;;;;;;;;;;;;;;;7.26;44.92;102886.72;4990380;28;20416;-73
2023/03/01 09:50:17;;;;;;;;;;;;;;;7.21;44.70;102873.59;5003830;28;19929;-73
2023/03/01 09:52:48;;;;;;;;;;;;;;;7.20;44.53;102878.59;4991742;28;19929;-73
2023/03/01 09:55:36;;;;;;;;;;;;;;;7.12;44.62;102874.59;4990482;28;20132;-73
2023/03/01 09:58:02;;;;;;;;;;;;;;;6.99;44.74;102870.25;4984065;28;19917;-74
2023/03/01 10:00:27;;;;;;;;;;;;;;;6.96;44.33;102870.88;4991791;28;19991;-73
2023/03/01 10:02:59;;;;;;;;;;;;;;;6.96;44.78;102862.31;4989836;28;20280;-74
2023/03/01 10:05:27;;;;;;;;;;;;;;;7.02;44.81;102864.47;4991321;28;19959;-74
2023/03/01 10:08:09;;;;;;;;;;;;;;;7.08;44.76;102870.91;4989907;28;19918;-73
2023/03/01 10:10:36;;;;;;;;;;;;;;;7.13;43.62;102861.03;4990628;28;19921;-73
2023/03/01 10:13:08;;;;;;;;;;;;;;;6.97;42.10;102849.66;4991376;28;19921;-74
2023/03/01 10:15:37;;;;;;;;;;;;;;;6.79;44.00;102848.28;4991744;28;19920;-74
2023/03/01 10:18:07;;;;;;;;;;;;;;;6.82;44.05;102840.84;4989882;28;20288;-74
2023/03/01 10:20:45;;;;;;;;;;;;;;;6.77;43.89;102838.72;4987574;28;19925;-74
2023/03/01 10:23:10;;;;;;;;;;;;;;;6.74;43.31;102846.19;4990294;28;19918;-75
2023/03/01 10:25:38;;;;;;;;;;;;;;;6.77;44.66;102833.63;4991036;28;19921;-74
2023/03/01 10:28:16;;;;;;;;;;;;;;;6.88;43.70;102837.88;4990514;28;19925;-74
2023/03/01 10:30:43;;;;;;;;;;;;;;;7.03;44.45;102830.41;4987655;28;19918;-75
2023/03/01 10:33:14;;;;;;;;;;;;;;;7.16;42.96;102826.34;4989813;28;19925;-75
2023/03/01 10:35:40;;;;;;;;;;;;;;;7.29;43.15;102825.56;4990115;28;20600;-78
2023/03/01 10:38:10;;;;;;;;;;;;;;;7.36;42.11;102835.47;4989951;28;20410;-76
2023/03/01 10:40:49;;;;;;;;;;;;;;;7.25;42.06;102824.44;4991060;28;19972;-73
2023/03/01 10:43:14;;;;;;;;;;;;;;;7.27;42.42;102829.66;4988551;28;19913;-75
2023/03/01 10:45:39;;;;;;;;;;;;;;;7.21;42.77;102827.53;4991116;28;20450;-75
2023/03/01 10:48:05;;;;;;;;;;;;;;;7.19;42.85;102812.88;4989923;28;19957;-74
2023/03/01 10:50:30;;;;;;;;;;;;;;;7.22;42.63;102819.13;4990137;28;19921;-74
2023/03/01 10:52:57;;;;;;;;;;;;;;;7.23;42.53;102818.31;4990722;28;19918;-74
2023/03/01 10:55:36;;;;;;;;;;;;;;;7.24;43.88;102820.09;4990137;28;19921;-74
2023/03/01 10:58:18;;;;;;;;;;;;;;;7.36;42.98;102814.97;4989756;28;19918;-74
2023/03/01 11:00:50;;;;;;;;;;;;;;;7.40;42.12;102819.56;4988951;28;19965;-74
2023/03/01 11:03:18;;;;;;;;;;;;;;;7.32;42.25;102812.09;4989806;28;19925;-75
2023/03/01 11:06:02;;;;;;;;;;;;;;;7.24;42.09;102812.44;4990825;28;19914;-74
2023/03/01 11:08:32;;;;;;;;;;;;;;;7.28;42.83;102811.00;4988738;28;19920;-75
2023/03/01 11:11:12;;;;;;;;;;;;;;;7.30;42.31;102806.88;4989162;28;19917;-75
2023/03/01 11:14:04;;;;;;;;;;;;;;;7.32;42.77;102801.84;4990481;28;19918;-74
2023/03/01 11:16:37;;;;;;;;;;;;;;;7.38;42.14;102808.28;4950444;28;20008;-75
2023/03/01 11:19:08;;;;;;;;;;;;;;;7.43;42.83;102811.19;4984819;28;20406;-74
2023/03/01 11:21:37;;;;;;;;;;;;;;;7.50;42.91;102819.41;4989600;28;20016;-75
2023/03/01 11:24:08;;;;;;;;;;;;;;;7.62;43.74;102803.16;4987962;28;19929;-75
2023/03/01 11:26:36;;;;;;;;;;;;;;;7.77;42.83;102802.56;4990289;28;19961;-75
2023/03/01 11:29:04;;;;;;;;;;;;;;;7.87;42.51;102798.97;4990387;28;19949;-75
2023/03/01 11:31:30;;;;;;;;;;;;;;;7.98;41.91;102805.72;4989152;28;20027;-75
2023/03/01 11:33:56;;;;;;;;;;;;;;;8.12;42.70;102798.09;4989998;28;20004;-75
2023/03/01 11:36:24;;;;;;;;;;;;;;;8.32;41.92;102792.69;4986115;28;20014;-75
2023/03/01 11:38:49;;;;;;;;;;;;;;;8.42;41.07;102784.84;4990694;28;20012;-75
2023/03/01 11:41:21;;;;;;;;;;;;;;;8.51;41.00;102785.47;4988311;28;20368;-75
2023/03/01 11:43:58;;;;;;;;;;;;;;;8.62;41.11;102787.88;4984679;28;19996;-75
2023/03/01 11:46:23;;;;;;;;;;;;;;;8.75;41.58;102783.66;4988610;28;19920;-75
2023/03/01 11:49:09;;;;;;;;;;;;;;;8.93;40.66;102791.66;4988147;28;20008;-75
2023/03/01 11:51:41;;;;;;;;;;;;;;;8.98;40.49;102784.25;4957696;28;20372;-75
2023/03/01 11:54:06;;;;;;;;;;;;;;;9.01;39.54;102780.22;4989140;28;19965;-75
2023/03/01 11:56:35;;;;;;;;;;;;;;;9.09;40.87;102783.25;4989529;28;19985;-75
2023/03/01 11:59:18;;;;;;;;;;;;;;;9.24;41.64;102774.00;4990056;28;20025;-75
2023/03/01 12:01:51;;;;;;;;;;;;;;;9.42;38.60;102778.53;4987925;28;19925;-75
2023/03/01 12:04:16;;;;;;;;;;;;;;;9.25;37.58;102774.88;4990336;28;19921;-75
2023/03/01 12:06:55;;;;;;;;;;;;;;;9.18;38.45;102776.16;4975467;28;19925;-75
2023/03/01 12:09:30;;;;;;;;;;;;;;;9.21;38.21;102772.91;4970592;28;19964;-75
2023/03/01 12:12:11;;;;;;;;;;;;;;;9.31;38.45;102765.88;5008577;28;19996;-75
2023/03/01 12:14:39;;;;;;;;;;;;;;;9.38;38.68;102751.75;4989831;28;20364;-75
2023/03/01 12:17:13;;;;;;;;;;;;;;;9.49;38.43;102755.00;4991430;28;20036;-75
2023/03/01 12:19:38;;;;;;;;;;;;;;;9.52;37.87;102760.31;4993726;28;19953;-75
2023/03/01 12:22:18;;;;;;;;;;;;;;;9.52;38.82;102755.19;4990320;28;19918;-75
2023/03/01 12:25:12;;;;;;;;;;;;;;;9.64;39.07;102755.94;4993774;28;19913;-75
2023/03/01 12:27:40;;;;;;;;;;;;;;;9.77;37.08;102750.78;4967421;28;20269;-75
2023/03/01 12:30:05;;;;;;;;;;;;;;;9.71;37.07;102745.28;4990163;28;19944;-75
2023/03/01 12:32:49;;;;;;;;;;;;;;;9.68;36.62;102743.38;4992957;28;20292;-75
2023/03/01 12:35:33;;;;;;;;;;;;;;;9.72;37.34;102738.47;4990231;28;19921;-75
2023/03/01 12:38:17;;;;;;;;;;;;;;;9.76;37.71;102732.69;4993412;28;19957;-75
2023/03/01 12:40:42;;;;;;;;;;;;;;;9.65;36.73;102732.94;4987453;28;19937;-75
2023/03/01 12:43:07;;;;;;;;;;;;;;;9.53;37.46;102733.88;4976831;28;19918;-75
2023/03/01 12:45:32;;;;;;;;;;;;;;;9.30;37.39;102724.72;4992266;28;19917;-74
2023/03/01 12:48:16;;;;;;;;;;;;;;;9.14;37.78;102718.59;4988617;28;20420;-74
2023/03/01 12:50:47;;;;;;;;;;;;;;;8.97;38.50;102715.75;4988311;28;19969;-75
2023/03/01 12:53:32;;;;;;;;;;;;;;;8.67;38.86;102717.22;4993116;28;19918;-75
2023/03/01 12:56:02;;;;;;;;;;;;;;;8.57;39.79;102720.88;4991997;28;20001;-75